Palm Harbor, TX

1:44 AM CST on December 03, 2016 (GMT -0600)
Palm Harbor-Buddy's Place | | Change Station
Active Advisory: Coastal Hazard Statement

Elev 10 ft 27.97 °N, 97.09 °W | Updated 11 seconds ago

Light Drizzle
Light Drizzle
--
Feels Like --
N
-
Wind Variable Wind from North
Gusts 0.0 mph

Today
High -- | Low -- °F
--% Chance of Precip.
Yesterday
High -- | Low -- °F
Precip. -- in
Pressure 29.86 in
Visibility 10.0 miles
Clouds Scattered Clouds 2100 ft
Mostly Cloudy 2600 ft
Overcast 4500 ft
Dew Point Not available.
Humidity Not available.
Rainfall 0.00 in
Snow Depth Not available.
7:04 AM 5:32 PM
Waxing Crescent, 13% visible
METAR KTFP 030735Z AUTO 03014G18KT 10SM -DZ SCT021 BKN026 OVC045 19/17 A2986 RMK AO2 LTG DSNT NE T01860171
Pressure 29.86 in
Visibility 10.0 miles
Clouds Scattered Clouds 2100 ft
Mostly Cloudy 2600 ft
Overcast 4500 ft
Dew Point Not available.
Humidity Not available.
Rainfall 0.00 in
Snow Depth Not available.
7:04 AM 5:32 PM
Waxing Crescent, 13% visible
METAR KTFP 030735Z AUTO 03014G18KT 10SM -DZ SCT021 BKN026 OVC045 19/17 A2986 RMK AO2 LTG DSNT NE T01860171

10-Day Weather Forecast

Almanac

Astronomy

Dec. 03, 2016 Rise Set
Actual Time
Civil Twilight
Nautical Twilight
Astronomical Twilight
Moon
Length of Visible Light
Length of Day
Tomorrow will be .
, % of the Moon is Illuminated

Today's Extremes

State Highs State Lows

Community

WunderPhotos

Upload Photos

1,955,432 photos uploaded!

WunderBlog® & News

Nearby

Air Quality

  Air Quality AQ Index Pollutant
Not available.

Snow Depth

Station Depth Elevation

Earthquake Activity

City Distance Mag. Time & Date
Minimum magnitude displayed is 2.5.

Coastal Water Temperatures

Place Temperature

Stations

Nearby Weather Stations

Station Location Temp. Windchill Dew Point Humidity Wind Precip. Elev Updated Type
                   

Watches & Warnings

Coastal Hazard Statement
Issued: 11:59 PM CST Dec. 2, 2016 – National Weather Service

... High rip current risk remains in effect through Saturday
morning...

* timing... through noon on Saturday

* impacts... frequent life threatening rip currents will continue
through Saturday morning. The surf is dangerous for all levels
of swimmers.

Precautionary/preparedness actions...

There is a high risk of rip currents.

Rip currents are powerful channels of water flowing quickly away
from shore... which occur most often at low spots or breaks in The
Sandbar and in the vicinity of structures such as groins...
jetties and piers. Heed the advice of lifeguards and the beach
patrol. Pay attention to flags and posted signs.

Swim near a lifeguard. If caught in a rip current remain calm.
Dont fight the current. Swim in a direction following the
shoreline. If unable to escape... face the shore and call or wave
for help. If tired... float or tread water until out of the rip
current.



Gw